sensor_id;sensor_type;location;lat;lon;timestamp;P1;P2;P0
72793;PMS5003;63436;26.334;50.194;2023-03-01T00:01:16;74;72;
72793;PMS5003;63436;26.334;50.194;2023-03-01T00:03:41;73;69;
72793;PMS5003;63436;26.334;50.194;2023-03-01T00:06:06;74;69;
72793;PMS5003;63436;26.334;50.194;2023-03-01T00:08:32;72;69;
72793;PMS5003;63436;26.334;50.194;2023-03-01T00:11:01;66;66;
72793;PMS5003;63436;26.334;50.194;2023-03-01T00:13:23;75;71;
72793;PMS5003;63436;26.334;50.194;2023-03-01T00:15:48;75;71;
72793;PMS5003;63436;26.334;50.194;2023-03-01T00:18:14;72;70;
72793;PMS5003;63436;26.334;50.194;2023-03-01T00:20:38;72;68;
72793;PMS5003;63436;26.334;50.194;2023-03-01T00:23:04;75;69;
72793;PMS5003;63436;26.334;50.194;2023-03-01T00:25:30;72;72;
72793;PMS5003;63436;26.334;50.194;2023-03-01T00:27:54;82;77;
72793;PMS5003;63436;26.334;50.194;2023-03-01T00:30:19;71;69;
72793;PMS5003;63436;26.334;50.194;2023-03-01T00:32:45;77;73;
72793;PMS5003;63436;26.334;50.194;2023-03-01T00:35:11;78;74;
72793;PMS5003;63436;26.334;50.194;2023-03-01T00:37:36;84;78;
72793;PMS5003;63436;26.334;50.194;2023-03-01T00:40:03;75;72;
72793;PMS5003;63436;26.334;50.194;2023-03-01T00:42:27;79;75;
72793;PMS5003;63436;26.334;50.194;2023-03-01T00:44:53;83;81;
72793;PMS5003;63436;26.334;50.194;2023-03-01T00:47:19;89;81;
72793;PMS5003;63436;26.334;50.194;2023-03-01T00:49:44;87;83;
72793;PMS5003;63436;26.334;50.194;2023-03-01T00:52:09;88;82;
72793;PMS5003;63436;26.334;50.194;2023-03-01T00:54:35;89;84;
72793;PMS5003;63436;26.334;50.194;2023-03-01T00:57:00;93;88;
72793;PMS5003;63436;26.334;50.194;2023-03-01T00:59:26;91;87;
72793;PMS5003;63436;26.334;50.194;2023-03-01T01:01:52;92;88;
72793;PMS5003;63436;26.334;50.194;2023-03-01T01:04:17;94;93;
72793;PMS5003;63436;26.334;50.194;2023-03-01T01:06:43;90;87;
72793;PMS5003;63436;26.334;50.194;2023-03-01T01:09:08;96;87;
72793;PMS5003;63436;26.334;50.194;2023-03-01T01:11:33;104;95;
72793;PMS5003;63436;26.334;50.194;2023-03-01T01:13:58;98;91;
72793;PMS5003;63436;26.334;50.194;2023-03-01T01:16:25;97;89;
72793;PMS5003;63436;26.334;50.194;2023-03-01T01:18:49;111;101;
72793;PMS5003;63436;26.334;50.194;2023-03-01T01:21:16;99;93;
72793;PMS5003;63436;26.334;50.194;2023-03-01T01:23:41;100;92;
72793;PMS5003;63436;26.334;50.194;2023-03-01T01:26:07;98;96;
72793;PMS5003;63436;26.334;50.194;2023-03-01T01:28:32;98;96;
72793;PMS5003;63436;26.334;50.194;2023-03-01T01:30:57;96;94;
72793;PMS5003;63436;26.334;50.194;2023-03-01T01:33:22;95;90;
72793;PMS5003;63436;26.334;50.194;2023-03-01T01:35:47;97;93;
72793;PMS5003;63436;26.334;50.194;2023-03-01T01:38:13;100;94;
72793;PMS5003;63436;26.334;50.194;2023-03-01T01:40:43;96;92;
72793;PMS5003;63436;26.334;50.194;2023-03-01T01:43:04;94;90;
72793;PMS5003;63436;26.334;50.194;2023-03-01T01:45:31;95;92;
72793;PMS5003;63436;26.334;50.194;2023-03-01T01:47:55;91;89;
72793;PMS5003;63436;26.334;50.194;2023-03-01T01:50:20;95;90;
72793;PMS5003;63436;26.334;50.194;2023-03-01T01:52:45;88;82;
72793;PMS5003;63436;26.334;50.194;2023-03-01T01:55:11;100;90;
72793;PMS5003;63436;26.334;50.194;2023-03-01T01:57:37;90;89;
72793;PMS5003;63436;26.334;50.194;2023-03-01T02:00:05;84;82;
72793;PMS5003;63436;26.334;50.194;2023-03-01T02:02:27;87;80;
72793;PMS5003;63436;26.334;50.194;2023-03-01T02:04:53;90;86;
72793;PMS5003;63436;26.334;50.194;2023-03-01T02:07:19;87;83;
72793;PMS5003;63436;26.334;50.194;2023-03-01T02:09:46;85;80;
72793;PMS5003;63436;26.334;50.194;2023-03-01T02:12:09;84;81;
72793;PMS5003;63436;26.334;50.194;2023-03-01T02:14:34;87;84;
72793;PMS5003;63436;26.334;50.194;2023-03-01T02:16:59;87;82;
72793;PMS5003;63436;26.334;50.194;2023-03-01T02:19:28;86;83;
72793;PMS5003;63436;26.334;50.194;2023-03-01T02:21:52;83;82;
72793;PMS5003;63436;26.334;50.194;2023-03-01T02:24:18;83;83;
72793;PMS5003;63436;26.334;50.194;2023-03-01T02:26:41;82;76;
72793;PMS5003;63436;26.334;50.194;2023-03-01T02:29:06;79;76;
72793;PMS5003;63436;26.334;50.194;2023-03-01T02:31:31;85;79;
72793;PMS5003;63436;26.334;50.194;2023-03-01T02:33:57;81;75;
72793;PMS5003;63436;26.334;50.194;2023-03-01T02:36:24;81;75;
72793;PMS5003;63436;26.334;50.194;2023-03-01T02:38:47;90;78;
72793;PMS5003;63436;26.334;50.194;2023-03-01T02:41:13;81;78;
72793;PMS5003;63436;26.334;50.194;2023-03-01T02:43:38;86;79;
72793;PMS5003;63436;26.334;50.194;2023-03-01T02:46:05;83;79;
72793;PMS5003;63436;26.334;50.194;2023-03-01T02:48:37;84;76;
72793;PMS5003;63436;26.334;50.194;2023-03-01T02:50:57;82;78;
72793;PMS5003;63436;26.334;50.194;2023-03-01T02:53:21;87;78;
72793;PMS5003;63436;26.334;50.194;2023-03-01T02:55:44;81;75;
72793;PMS5003;63436;26.334;50.194;2023-03-01T02:58:10;86;84;
72793;PMS5003;63436;26.334;50.194;2023-03-01T03:00:36;83;79;
72793;PMS5003;63436;26.334;50.194;2023-03-01T03:03:01;83;81;
72793;PMS5003;63436;26.334;50.194;2023-03-01T03:05:27;85;81;
72793;PMS5003;63436;26.334;50.194;2023-03-01T03:07:52;86;80;
72793;PMS5003;63436;26.334;50.194;2023-03-01T03:10:19;85;76;
72793;PMS5003;63436;26.334;50.194;2023-03-01T03:12:43;84;82;
72793;PMS5003;63436;26.334;50.194;2023-03-01T03:15:10;82;77;
72793;PMS5003;63436;26.334;50.194;2023-03-01T03:17:34;80;79;
72793;PMS5003;63436;26.334;50.194;2023-03-01T03:22:24;83;80;
72793;PMS5003;63436;26.334;50.194;2023-03-01T03:24:50;83;78;
72793;PMS5003;63436;26.334;50.194;2023-03-01T03:27:15;79;76;
72793;PMS5003;63436;26.334;50.194;2023-03-01T03:29:42;84;82;
72793;PMS5003;63436;26.334;50.194;2023-03-01T03:32:06;88;83;
72793;PMS5003;63436;26.334;50.194;2023-03-01T03:34:32;83;79;
72793;PMS5003;63436;26.334;50.194;2023-03-01T03:36:57;84;80;
72793;PMS5003;63436;26.334;50.194;2023-03-01T03:39:23;86;82;
72793;PMS5003;63436;26.334;50.194;2023-03-01T03:41:49;96;89;
72793;PMS5003;63436;26.334;50.194;2023-03-01T03:44:15;84;79;
72793;PMS5003;63436;26.334;50.194;2023-03-01T03:46:40;85;81;
72793;PMS5003;63436;26.334;50.194;2023-03-01T03:49:06;83;79;
72793;PMS5003;63436;26.334;50.194;2023-03-01T03:51:31;79;74;
72793;PMS5003;63436;26.334;50.194;2023-03-01T03:53:57;80;75;
72793;PMS5003;63436;26.334;50.194;2023-03-01T03:56:22;91;83;
72793;PMS5003;63436;26.334;50.194;2023-03-01T03:58:47;89;82;
72793;PMS5003;63436;26.334;50.194;2023-03-01T04:01:13;81;79;
72793;PMS5003;63436;26.334;50.194;2023-03-01T04:03:39;76;74;
72793;PMS5003;63436;26.334;50.194;2023-03-01T04:06:04;79;75;
72793;PMS5003;63436;26.334;50.194;2023-03-01T04:08:29;85;80;
72793;PMS5003;63436;26.334;50.194;2023-03-01T04:10:57;83;80;
72793;PMS5003;63436;26.334;50.194;2023-03-01T04:13:20;80;74;
72793;PMS5003;63436;26.334;50.194;2023-03-01T04:15:45;78;68;
72793;PMS5003;63436;26.334;50.194;2023-03-01T04:18:10;79;76;
72793;PMS5003;63436;26.334;50.194;2023-03-01T04:20:36;75;73;
72793;PMS5003;63436;26.334;50.194;2023-03-01T04:23:02;87;82;
72793;PMS5003;63436;26.334;50.194;2023-03-01T04:25:28;78;72;
72793;PMS5003;63436;26.334;50.194;2023-03-01T04:27:52;91;83;
72793;PMS5003;63436;26.334;50.194;2023-03-01T04:30:18;74;71;
72793;PMS5003;63436;26.334;50.194;2023-03-01T04:32:43;80;73;
72793;PMS5003;63436;26.334;50.194;2023-03-01T04:35:09;80;74;
72793;PMS5003;63436;26.334;50.194;2023-03-01T04:37:34;77;77;
72793;PMS5003;63436;26.334;50.194;2023-03-01T04:40:00;77;75;
72793;PMS5003;63436;26.334;50.194;2023-03-01T04:42:25;74;73;
72793;PMS5003;63436;26.334;50.194;2023-03-01T04:44:51;76;74;
72793;PMS5003;63436;26.334;50.194;2023-03-01T04:47:16;74;71;
72793;PMS5003;63436;26.334;50.194;2023-03-01T04:49:42;72;69;
72793;PMS5003;63436;26.334;50.194;2023-03-01T04:52:07;77;75;
72793;PMS5003;63436;26.334;50.194;2023-03-01T04:54:33;76;74;
72793;PMS5003;63436;26.334;50.194;2023-03-01T04:56:58;73;71;
72793;PMS5003;63436;26.334;50.194;2023-03-01T04:59:23;82;75;
72793;PMS5003;63436;26.334;50.194;2023-03-01T05:01:49;70;67;
72793;PMS5003;63436;26.334;50.194;2023-03-01T05:04:14;80;73;
72793;PMS5003;63436;26.334;50.194;2023-03-01T05:06:40;69;67;
72793;PMS5003;63436;26.334;50.194;2023-03-01T05:09:05;77;72;
72793;PMS5003;63436;26.334;50.194;2023-03-01T05:11:31;79;74;
72793;PMS5003;63436;26.334;50.194;2023-03-01T05:13:56;67;64;
72793;PMS5003;63436;26.334;50.194;2023-03-01T05:18:50;77;73;
72793;PMS5003;63436;26.334;50.194;2023-03-01T05:21:13;70;67;
72793;PMS5003;63436;26.334;50.194;2023-03-01T05:23:38;77;73;
72793;PMS5003;63436;26.334;50.194;2023-03-01T05:26:05;73;68;
72793;PMS5003;63436;26.334;50.194;2023-03-01T05:28:29;76;69;
72793;PMS5003;63436;26.334;50.194;2023-03-01T05:30:55;73;68;
72793;PMS5003;63436;26.334;50.194;2023-03-01T05:33:21;70;64;
72793;PMS5003;63436;26.334;50.194;2023-03-01T05:35:46;75;70;
72793;PMS5003;63436;26.334;50.194;2023-03-01T05:38:12;72;66;
72793;PMS5003;63436;26.334;50.194;2023-03-01T05:40:38;69;65;
72793;PMS5003;63436;26.334;50.194;2023-03-01T05:43:03;69;68;
72793;PMS5003;63436;26.334;50.194;2023-03-01T05:45:28;77;68;
72793;PMS5003;63436;26.334;50.194;2023-03-01T05:47:54;69;66;
72793;PMS5003;63436;26.334;50.194;2023-03-01T05:50:21;71;66;
72793;PMS5003;63436;26.334;50.194;2023-03-01T05:52:45;71;69;
72793;PMS5003;63436;26.334;50.194;2023-03-01T05:55:10;73;69;
72793;PMS5003;63436;26.334;50.194;2023-03-01T05:57:36;75;69;
72793;PMS5003;63436;26.334;50.194;2023-03-01T06:00:01;67;66;
72793;PMS5003;63436;26.334;50.194;2023-03-01T06:02:27;76;69;
72793;PMS5003;63436;26.334;50.194;2023-03-01T06:04:54;67;65;
72793;PMS5003;63436;26.334;50.194;2023-03-01T06:07:18;72;66;
72793;PMS5003;63436;26.334;50.194;2023-03-01T06:09:44;71;64;
72793;PMS5003;63436;26.334;50.194;2023-03-01T06:12:10;78;69;
72793;PMS5003;63436;26.334;50.194;2023-03-01T06:14:34;77;69;
72793;PMS5003;63436;26.334;50.194;2023-03-01T06:16:59;64;63;
72793;PMS5003;63436;26.334;50.194;2023-03-01T06:19:25;74;70;
72793;PMS5003;63436;26.334;50.194;2023-03-01T06:21:50;83;74;
72793;PMS5003;63436;26.334;50.194;2023-03-01T06:24:15;71;66;
72793;PMS5003;63436;26.334;50.194;2023-03-01T06:26:41;82;74;
72793;PMS5003;63436;26.334;50.194;2023-03-01T06:29:06;79;77;
72793;PMS5003;63436;26.334;50.194;2023-03-01T06:31:31;78;71;
72793;PMS5003;63436;26.334;50.194;2023-03-01T06:33:56;78;70;
72793;PMS5003;63436;26.334;50.194;2023-03-01T06:36:21;69;64;
72793;PMS5003;63436;26.334;50.194;2023-03-01T06:38:46;62;60;
72793;PMS5003;63436;26.334;50.194;2023-03-01T06:41:13;68;63;
72793;PMS5003;63436;26.334;50.194;2023-03-01T06:43:37;76;72;
72793;PMS5003;63436;26.334;50.194;2023-03-01T06:46:04;64;63;
72793;PMS5003;63436;26.334;50.194;2023-03-01T06:48:28;67;63;
72793;PMS5003;63436;26.334;50.194;2023-03-01T06:50:54;73;68;
72793;PMS5003;63436;26.334;50.194;2023-03-01T06:53:19;68;61;
72793;PMS5003;63436;26.334;50.194;2023-03-01T06:55:45;62;62;
72793;PMS5003;63436;26.334;50.194;2023-03-01T06:58:09;65;62;
72793;PMS5003;63436;26.334;50.194;2023-03-01T07:00:35;64;59;
72793;PMS5003;63436;26.334;50.194;2023-03-01T07:03:01;66;62;
72793;PMS5003;63436;26.334;50.194;2023-03-01T07:05:26;72;65;
72793;PMS5003;63436;26.334;50.194;2023-03-01T07:07:52;68;62;
72793;PMS5003;63436;26.334;50.194;2023-03-01T07:10:17;69;64;
72793;PMS5003;63436;26.334;50.194;2023-03-01T07:12:42;74;66;
72793;PMS5003;63436;26.334;50.194;2023-03-01T07:15:08;67;64;
72793;PMS5003;63436;26.334;50.194;2023-03-01T07:17:33;69;66;
72793;PMS5003;63436;26.334;50.194;2023-03-01T07:19:58;66;61;
72793;PMS5003;63436;26.334;50.194;2023-03-01T07:22:24;70;67;
72793;PMS5003;63436;26.334;50.194;2023-03-01T07:24:49;71;63;
72793;PMS5003;63436;26.334;50.194;2023-03-01T07:27:14;67;61;
72793;PMS5003;63436;26.334;50.194;2023-03-01T07:29:40;63;61;
72793;PMS5003;63436;26.334;50.194;2023-03-01T07:32:07;62;57;
72793;PMS5003;63436;26.334;50.194;2023-03-01T07:34:31;59;57;
72793;PMS5003;63436;26.334;50.194;2023-03-01T07:36:56;63;57;
72793;PMS5003;63436;26.334;50.194;2023-03-01T07:39:22;68;58;
72793;PMS5003;63436;26.334;50.194;2023-03-01T07:41:49;71;61;
72793;PMS5003;63436;26.334;50.194;2023-03-01T07:44:14;58;54;
72793;PMS5003;63436;26.334;50.194;2023-03-01T07:46:41;63;58;
72793;PMS5003;63436;26.334;50.194;2023-03-01T07:49:05;59;54;
72793;PMS5003;63436;26.334;50.194;2023-03-01T07:51:30;57;55;
72793;PMS5003;63436;26.334;50.194;2023-03-01T07:53:57;59;58;
72793;PMS5003;63436;26.334;50.194;2023-03-01T07:56:21;74;65;
72793;PMS5003;63436;26.334;50.194;2023-03-01T07:58:47;55;52;
72793;PMS5003;63436;26.334;50.194;2023-03-01T08:01:14;62;53;
72793;PMS5003;63436;26.334;50.194;2023-03-01T08:03:38;64;63;
72793;PMS5003;63436;26.334;50.194;2023-03-01T08:06:03;60;57;
72793;PMS5003;63436;26.334;50.194;2023-03-01T08:08:29;58;52;
72793;PMS5003;63436;26.334;50.194;2023-03-01T08:10:56;63;59;
72793;PMS5003;63436;26.334;50.194;2023-03-01T08:13:19;52;51;
72793;PMS5003;63436;26.334;50.194;2023-03-01T08:15:45;61;55;
72793;PMS5003;63436;26.334;50.194;2023-03-01T08:18:10;62;55;
72793;PMS5003;63436;26.334;50.194;2023-03-01T08:20:36;59;54;
72793;PMS5003;63436;26.334;50.194;2023-03-01T08:23:02;60;55;
72793;PMS5003;63436;26.334;50.194;2023-03-01T08:25:27;65;58;
72793;PMS5003;63436;26.334;50.194;2023-03-01T08:27:52;59;56;
72793;PMS5003;63436;26.334;50.194;2023-03-01T08:30:18;62;57;
72793;PMS5003;63436;26.334;50.194;2023-03-01T08:32:43;59;56;
72793;PMS5003;63436;26.334;50.194;2023-03-01T08:35:08;57;54;
72793;PMS5003;63436;26.334;50.194;2023-03-01T08:37:34;59;57;
72793;PMS5003;63436;26.334;50.194;2023-03-01T08:39:59;55;52;
72793;PMS5003;63436;26.334;50.194;2023-03-01T08:42:25;54;54;
72793;PMS5003;63436;26.334;50.194;2023-03-01T08:44:51;57;55;
72793;PMS5003;63436;26.334;50.194;2023-03-01T08:47:17;61;55;
72793;PMS5003;63436;26.334;50.194;2023-03-01T08:49:42;57;55;
72793;PMS5003;63436;26.334;50.194;2023-03-01T08:52:07;56;51;
72793;PMS5003;63436;26.334;50.194;2023-03-01T08:54:33;52;50;
72793;PMS5003;63436;26.334;50.194;2023-03-01T08:57:01;60;56;
72793;PMS5003;63436;26.334;50.194;2023-03-01T08:59:25;62;58;
72793;PMS5003;63436;26.334;50.194;2023-03-01T09:01:49;61;58;
72793;PMS5003;63436;26.334;50.194;2023-03-01T09:04:15;68;59;
72793;PMS5003;63436;26.334;50.194;2023-03-01T09:06:40;64;58;
72793;PMS5003;63436;26.334;50.194;2023-03-01T09:09:05;58;55;
72793;PMS5003;63436;26.334;50.194;2023-03-01T09:11:31;61;51;
72793;PMS5003;63436;26.334;50.194;2023-03-01T09:13:56;62;56;
72793;PMS5003;63436;26.334;50.194;2023-03-01T09:16:22;64;59;
72793;PMS5003;63436;26.334;50.194;2023-03-01T09:18:48;65;57;
72793;PMS5003;63436;26.334;50.194;2023-03-01T09:21:14;59;57;
72793;PMS5003;63436;26.334;50.194;2023-03-01T09:23:38;55;54;
72793;PMS5003;63436;26.334;50.194;2023-03-01T09:26:02;59;57;
72793;PMS5003;63436;26.334;50.194;2023-03-01T09:28:28;64;59;
72793;PMS5003;63436;26.334;50.194;2023-03-01T09:30:53;60;54;
72793;PMS5003;63436;26.334;50.194;2023-03-01T09:33:19;61;55;
72793;PMS5003;63436;26.334;50.194;2023-03-01T09:35:45;60;55;
72793;PMS5003;63436;26.334;50.194;2023-03-01T09:38:10;57;54;
72793;PMS5003;63436;26.334;50.194;2023-03-01T09:40:35;58;54;
72793;PMS5003;63436;26.334;50.194;2023-03-01T09:43:05;58;54;
72793;PMS5003;63436;26.334;50.194;2023-03-01T09:45:27;61;56;
72793;PMS5003;63436;26.334;50.194;2023-03-01T09:47:53;58;54;
72793;PMS5003;63436;26.334;50.194;2023-03-01T09:50:19;58;55;
72793;PMS5003;63436;26.334;50.194;2023-03-01T09:52:45;61;57;
72793;PMS5003;63436;26.334;50.194;2023-03-01T09:55:11;65;58;
72793;PMS5003;63436;26.334;50.194;2023-03-01T09:57:36;67;61;
72793;PMS5003;63436;26.334;50.194;2023-03-01T10:00:03;57;52;
72793;PMS5003;63436;26.334;50.194;2023-03-01T10:02:27;57;52;
72793;PMS5003;63436;26.334;50.194;2023-03-01T10:04:51;58;56;
72793;PMS5003;63436;26.334;50.194;2023-03-01T10:07:20;61;56;
72793;PMS5003;63436;26.334;50.194;2023-03-01T10:09:42;60;54;
72793;PMS5003;63436;26.334;50.194;2023-03-01T10:12:10;70;64;
72793;PMS5003;63436;26.334;50.194;2023-03-01T10:14:40;64;58;
72793;PMS5003;63436;26.334;50.194;2023-03-01T10:17:04;59;58;
72793;PMS5003;63436;26.334;50.194;2023-03-01T10:19:27;56;54;
72793;PMS5003;63436;26.334;50.194;2023-03-01T10:22:03;53;53;
72793;PMS5003;63436;26.334;50.194;2023-03-01T10:24:15;51;50;
72793;PMS5003;63436;26.334;50.194;2023-03-01T10:26:44;65;59;
72793;PMS5003;63436;26.334;50.194;2023-03-01T10:29:07;66;61;
72793;PMS5003;63436;26.334;50.194;2023-03-01T10:31:36;56;53;
72793;PMS5003;63436;26.334;50.194;2023-03-01T10:33:57;62;56;
72793;PMS5003;63436;26.334;50.194;2023-03-01T10:36:21;66;61;
72793;PMS5003;63436;26.334;50.194;2023-03-01T10:38:48;69;58;
72793;PMS5003;63436;26.334;50.194;2023-03-01T10:41:12;68;61;
72793;PMS5003;63436;26.334;50.194;2023-03-01T10:43:43;61;60;
72793;PMS5003;63436;26.334;50.194;2023-03-01T10:46:02;60;58;
72793;PMS5003;63436;26.334;50.194;2023-03-01T10:48:28;63;59;
72793;PMS5003;63436;26.334;50.194;2023-03-01T10:53:20;59;56;
72793;PMS5003;63436;26.334;50.194;2023-03-01T10:55:45;58;56;
72793;PMS5003;63436;26.334;50.194;2023-03-01T11:00:36;57;57;
72793;PMS5003;63436;26.334;50.194;2023-03-01T11:03:04;61;60;
72793;PMS5003;63436;26.334;50.194;2023-03-01T11:05:26;63;57;
72793;PMS5003;63436;26.334;50.194;2023-03-01T11:07:52;65;62;
72793;PMS5003;63436;26.334;50.194;2023-03-01T11:10:18;68;61;
72793;PMS5003;63436;26.334;50.194;2023-03-01T11:12:43;66;61;
72793;PMS5003;63436;26.334;50.194;2023-03-01T11:15:15;63;62;
72793;PMS5003;63436;26.334;50.194;2023-03-01T11:17:33;64;58;
72793;PMS5003;63436;26.334;50.194;2023-03-01T11:20:00;66;59;
72793;PMS5003;63436;26.334;50.194;2023-03-01T11:22:24;61;58;
72793;PMS5003;63436;26.334;50.194;2023-03-01T11:24:51;66;62;
72793;PMS5003;63436;26.334;50.194;2023-03-01T11:27:16;58;55;
72793;PMS5003;63436;26.334;50.194;2023-03-01T11:29:42;59;57;
72793;PMS5003;63436;26.334;50.194;2023-03-01T11:32:06;71;68;
72793;PMS5003;63436;26.334;50.194;2023-03-01T11:34:35;66;62;
72793;PMS5003;63436;26.334;50.194;2023-03-01T11:36:58;71;69;
72793;PMS5003;63436;26.334;50.194;2023-03-01T11:39:25;62;60;
72793;PMS5003;63436;26.334;50.194;2023-03-01T11:41:48;73;70;
72793;PMS5003;63436;26.334;50.194;2023-03-01T11:44:14;64;58;
72793;PMS5003;63436;26.334;50.194;2023-03-01T11:49:07;66;61;
72793;PMS5003;63436;26.334;50.194;2023-03-01T11:51:34;71;67;
72793;PMS5003;63436;26.334;50.194;2023-03-01T11:53:57;73;65;
72793;PMS5003;63436;26.334;50.194;2023-03-01T11:56:22;70;67;
72793;PMS5003;63436;26.334;50.194;2023-03-01T11:58:48;75;67;
72793;PMS5003;63436;26.334;50.194;2023-03-01T12:01:15;65;61;
72793;PMS5003;63436;26.334;50.194;2023-03-01T12:03:40;68;64;
72793;PMS5003;63436;26.334;50.194;2023-03-01T12:06:05;72;66;
72793;PMS5003;63436;26.334;50.194;2023-03-01T12:08:26;69;64;
72793;PMS5003;63436;26.334;50.194;2023-03-01T12:10:52;62;60;
72793;PMS5003;63436;26.334;50.194;2023-03-01T12:13:20;69;64;
72793;PMS5003;63436;26.334;50.194;2023-03-01T12:15:46;57;56;
72793;PMS5003;63436;26.334;50.194;2023-03-01T12:18:13;68;61;
72793;PMS5003;63436;26.334;50.194;2023-03-01T12:20:35;73;59;
72793;PMS5003;63436;26.334;50.194;2023-03-01T12:25:25;66;62;
72793;PMS5003;63436;26.334;50.194;2023-03-01T12:27:57;74;70;
72793;PMS5003;63436;26.334;50.194;2023-03-01T12:30:18;63;60;
72793;PMS5003;63436;26.334;50.194;2023-03-01T12:32:43;69;63;
72793;PMS5003;63436;26.334;50.194;2023-03-01T12:35:12;69;67;
72793;PMS5003;63436;26.334;50.194;2023-03-01T12:37:35;67;61;
72793;PMS5003;63436;26.334;50.194;2023-03-01T12:40:03;71;66;
72793;PMS5003;63436;26.334;50.194;2023-03-01T12:42:25;67;64;
72793;PMS5003;63436;26.334;50.194;2023-03-01T12:44:57;72;71;
72793;PMS5003;63436;26.334;50.194;2023-03-01T12:47:18;71;70;
72793;PMS5003;63436;26.334;50.194;2023-03-01T12:49:40;67;66;
72793;PMS5003;63436;26.334;50.194;2023-03-01T12:52:07;69;64;
72793;PMS5003;63436;26.334;50.194;2023-03-01T12:54:30;73;69;
72793;PMS5003;63436;26.334;50.194;2023-03-01T12:56:55;78;71;
72793;PMS5003;63436;26.334;50.194;2023-03-01T12:59:21;69;63;
72793;PMS5003;63436;26.334;50.194;2023-03-01T13:01:48;79;75;
72793;PMS5003;63436;26.334;50.194;2023-03-01T13:04:23;72;71;
72793;PMS5003;63436;26.334;50.194;2023-03-01T13:06:39;75;73;
72793;PMS5003;63436;26.334;50.194;2023-03-01T13:09:03;69;66;
72793;PMS5003;63436;26.334;50.194;2023-03-01T13:11:27;69;64;
72793;PMS5003;63436;26.334;50.194;2023-03-01T13:13:52;70;67;
72793;PMS5003;63436;26.334;50.194;2023-03-01T13:16:20;67;65;
72793;PMS5003;63436;26.334;50.194;2023-03-01T13:18:43;74;74;
72793;PMS5003;63436;26.334;50.194;2023-03-01T13:21:09;80;79;
72793;PMS5003;63436;26.334;50.194;2023-03-01T13:23:35;74;70;
72793;PMS5003;63436;26.334;50.194;2023-03-01T13:26:02;86;84;
72793;PMS5003;63436;26.334;50.194;2023-03-01T13:30:51;75;71;
72793;PMS5003;63436;26.334;50.194;2023-03-01T13:35:41;62;60;
72793;PMS5003;63436;26.334;50.194;2023-03-01T13:42:58;60;59;
72793;PMS5003;63436;26.334;50.194;2023-03-01T13:45:24;66;61;
72793;PMS5003;63436;26.334;50.194;2023-03-01T13:47:49;67;57;
72793;PMS5003;63436;26.334;50.194;2023-03-01T13:50:18;66;62;
72793;PMS5003;63436;26.334;50.194;2023-03-01T13:52:40;66;64;
72793;PMS5003;63436;26.334;50.194;2023-03-01T13:55:06;69;67;
72793;PMS5003;63436;26.334;50.194;2023-03-01T13:57:31;70;67;
72793;PMS5003;63436;26.334;50.194;2023-03-01T13:59:54;72;71;
72793;PMS5003;63436;26.334;50.194;2023-03-01T14:02:20;69;64;
72793;PMS5003;63436;26.334;50.194;2023-03-01T14:07:11;65;61;
72793;PMS5003;63436;26.334;50.194;2023-03-01T14:09:37;64;59;
72793;PMS5003;63436;26.334;50.194;2023-03-01T14:12:04;65;62;
72793;PMS5003;63436;26.334;50.194;2023-03-01T14:14:30;63;59;
72793;PMS5003;63436;26.334;50.194;2023-03-01T14:16:54;65;64;
72793;PMS5003;63436;26.334;50.194;2023-03-01T14:19:19;75;67;
72793;PMS5003;63436;26.334;50.194;2023-03-01T14:21:44;63;60;
72793;PMS5003;63436;26.334;50.194;2023-03-01T14:26:35;62;61;
72793;PMS5003;63436;26.334;50.194;2023-03-01T14:29:01;72;65;
72793;PMS5003;63436;26.334;50.194;2023-03-01T14:31:32;66;63;
72793;PMS5003;63436;26.334;50.194;2023-03-01T14:33:54;63;63;
72793;PMS5003;63436;26.334;50.194;2023-03-01T14:36:25;67;61;
72793;PMS5003;63436;26.334;50.194;2023-03-01T14:38:44;71;68;
72793;PMS5003;63436;26.334;50.194;2023-03-01T14:41:10;65;64;
72793;PMS5003;63436;26.334;50.194;2023-03-01T14:43:34;62;59;
72793;PMS5003;63436;26.334;50.194;2023-03-01T14:46:00;64;59;
72793;PMS5003;63436;26.334;50.194;2023-03-01T14:48:26;67;61;
72793;PMS5003;63436;26.334;50.194;2023-03-01T14:50:51;72;63;
72793;PMS5003;63436;26.334;50.194;2023-03-01T14:53:18;73;66;
72793;PMS5003;63436;26.334;50.194;2023-03-01T14:55:42;66;62;
72793;PMS5003;63436;26.334;50.194;2023-03-01T14:58:09;70;67;
72793;PMS5003;63436;26.334;50.194;2023-03-01T15:00:33;75;69;
72793;PMS5003;63436;26.334;50.194;2023-03-01T15:03:00;68;60;
72793;PMS5003;63436;26.334;50.194;2023-03-01T15:05:25;66;61;
72793;PMS5003;63436;26.334;50.194;2023-03-01T15:07:49;68;62;
72793;PMS5003;63436;26.334;50.194;2023-03-01T15:10:17;66;60;
72793;PMS5003;63436;26.334;50.194;2023-03-01T15:12:40;61;59;
72793;PMS5003;63436;26.334;50.194;2023-03-01T15:17:31;65;61;
72793;PMS5003;63436;26.334;50.194;2023-03-01T15:19:56;85;70;
72793;PMS5003;63436;26.334;50.194;2023-03-01T15:22:21;85;77;
72793;PMS5003;63436;26.334;50.194;2023-03-01T15:24:47;75;67;
72793;PMS5003;63436;26.334;50.194;2023-03-01T15:27:14;82;71;
72793;PMS5003;63436;26.334;50.194;2023-03-01T15:29:37;76;70;
72793;PMS5003;63436;26.334;50.194;2023-03-01T15:32:03;70;65;
72793;PMS5003;63436;26.334;50.194;2023-03-01T15:34:29;75;70;
72793;PMS5003;63436;26.334;50.194;2023-03-01T15:36:54;69;66;
72793;PMS5003;63436;26.334;50.194;2023-03-01T15:39:31;71;67;
72793;PMS5003;63436;26.334;50.194;2023-03-01T15:41:46;68;64;
72793;PMS5003;63436;26.334;50.194;2023-03-01T15:44:15;67;63;
72793;PMS5003;63436;26.334;50.194;2023-03-01T15:46:35;73;66;
72793;PMS5003;63436;26.334;50.194;2023-03-01T15:49:02;70;66;
72793;PMS5003;63436;26.334;50.194;2023-03-01T15:51:28;63;62;
72793;PMS5003;63436;26.334;50.194;2023-03-01T15:53:51;72;71;
72793;PMS5003;63436;26.334;50.194;2023-03-01T15:56:16;74;70;
72793;PMS5003;63436;26.334;50.194;2023-03-01T15:58:42;75;72;
72793;PMS5003;63436;26.334;50.194;2023-03-01T16:01:10;74;70;
72793;PMS5003;63436;26.334;50.194;2023-03-01T16:03:33;76;75;
72793;PMS5003;63436;26.334;50.194;2023-03-01T16:05:59;84;78;
72793;PMS5003;63436;26.334;50.194;2023-03-01T16:08:24;79;76;
72793;PMS5003;63436;26.334;50.194;2023-03-01T16:10:49;79;74;
72793;PMS5003;63436;26.334;50.194;2023-03-01T16:13:14;76;73;
72793;PMS5003;63436;26.334;50.194;2023-03-01T16:15:40;74;71;
72793;PMS5003;63436;26.334;50.194;2023-03-01T16:18:05;81;72;
72793;PMS5003;63436;26.334;50.194;2023-03-01T16:20:31;72;72;